createdAt,value
2023-04-02T00:00:36.903Z,97316.63
2023-04-02T00:03:24.905Z,97313.94
2023-04-02T00:05:55.063Z,97316.63
2023-04-02T00:08:33.945Z,97319.23
2023-04-02T00:11:02.434Z,97320.65
2023-04-02T00:13:47.131Z,97320.34
2023-04-02T00:16:22.048Z,97321.27
2023-04-02T00:18:53.913Z,97323.90
2023-04-02T00:21:24.250Z,97328.32
2023-04-02T00:23:55.606Z,97331.50
2023-04-02T00:26:25.577Z,97326.69
2023-04-02T00:28:53.689Z,97329.89
2023-04-02T00:31:22.388Z,97333.05
2023-04-02T00:33:51.183Z,97328.75
2023-04-02T00:36:22.248Z,97331.80
2023-04-02T00:38:50.756Z,97332.39
2023-04-02T00:41:29.870Z,97334.63
2023-04-02T00:43:59.884Z,97331.62
2023-04-02T00:46:47.142Z,97332.90
2023-04-02T00:49:32.729Z,97332.98
2023-04-02T00:52:10.921Z,97332.62
2023-04-02T00:54:45.586Z,97335.55
2023-04-02T00:57:18.327Z,97337.20
2023-04-02T01:00:09.239Z,97339.89
2023-04-02T01:02:38.565Z,97320.60
2023-04-02T01:05:23.415Z,97344.27
2023-04-02T01:08:13.050Z,97343.83
2023-04-02T01:10:56.192Z,97347.58
2023-04-02T01:13:36.361Z,97347.30
2023-04-02T01:16:36.849Z,97347.73
2023-04-02T01:19:29.488Z,97349.64
2023-04-02T01:22:07.085Z,97351.31
2023-04-02T01:24:39.180Z,97353.34
2023-04-02T01:27:18.264Z,97353.77
2023-04-02T01:29:58.680Z,97350.55
2023-04-02T01:32:30.531Z,97353.11
2023-04-02T01:34:59.214Z,97353.01
2023-04-02T01:37:39.382Z,97356.46
2023-04-02T01:40:16.393Z,97357.25
2023-04-02T01:43:03.855Z,97356.66
2023-04-02T01:45:32.887Z,97361.89
2023-04-02T01:48:06.257Z,97360.53
2023-04-02T01:50:38.726Z,97354.08
2023-04-02T01:53:10.591Z,97361.80
2023-04-02T01:55:50.951Z,97363.61
2023-04-02T01:58:25.743Z,97362.15
2023-04-02T02:01:18.245Z,97362.63
2023-04-02T02:03:48.403Z,97364.27
2023-04-02T02:06:18.979Z,97365.31
2023-04-02T02:08:54.332Z,97368.80
2023-04-02T02:11:27.260Z,97366.64
2023-04-02T02:13:56.332Z,97374.50
2023-04-02T02:16:29.203Z,97375.90
2023-04-02T02:19:02.051Z,97379.30
2023-04-02T02:21:43.644Z,97378.50
2023-04-02T02:24:37.975Z,97379.54
2023-04-02T02:27:06.041Z,97380.84
2023-04-02T02:29:38.463Z,97377.32
2023-04-02T02:32:09.818Z,97375.41
2023-04-02T02:34:41.824Z,97380.21
2023-04-02T02:37:18.474Z,97385.63
2023-04-02T02:39:54.033Z,97385.40
2023-04-02T02:42:31.755Z,97388.55
2023-04-02T02:45:05.569Z,97385.35
2023-04-02T02:47:38.188Z,97387.32
2023-04-02T02:50:19.813Z,97390.06
2023-04-02T02:52:53.680Z,97390.93
2023-04-02T02:55:27.788Z,97394.67
2023-04-02T02:58:23.602Z,97397.80
2023-04-02T03:01:21.852Z,97404.04
2023-04-02T03:03:54.863Z,97410.54
2023-04-02T03:06:23.673Z,97410.95
2023-04-02T03:09:22.888Z,97412.46
2023-04-02T03:12:00.062Z,97412.19
2023-04-02T03:14:46.630Z,97413.93
2023-04-02T03:17:26.352Z,97416.87
2023-04-02T03:20:06.482Z,97417.17
2023-04-02T03:22:42.333Z,97418.73
2023-04-02T03:25:37.600Z,97420.41
2023-04-02T03:28:13.220Z,97420.05
2023-04-02T03:30:45.153Z,97420.83
2023-04-02T03:33:28.361Z,97423.06
2023-04-02T03:35:59.887Z,97425.88
2023-04-02T03:38:33.110Z,97425.08
2023-04-02T03:41:07.269Z,97431.91
2023-04-02T03:43:47.292Z,97432.67
2023-04-02T03:46:31.628Z,97435.88
2023-04-02T03:49:06.934Z,97439.39
2023-04-02T03:52:18.027Z,97442.04
2023-04-02T03:54:54.149Z,97449.33
2023-04-02T03:57:38.463Z,97446.16
2023-04-02T04:00:42.533Z,97447.30
2023-04-02T04:03:14.208Z,97450.84
2023-04-02T04:05:57.585Z,97455.05
2023-04-02T04:08:43.794Z,97455.16
2023-04-02T04:11:20.144Z,97463.11
2023-04-02T04:14:06.036Z,97455.69
2023-04-02T04:16:46.337Z,97464.17
2023-04-02T04:19:30.169Z,97469.13
2023-04-02T04:22:16.098Z,97476.31
2023-04-02T04:24:45.659Z,97480.13
2023-04-02T04:27:37.363Z,97479.29
2023-04-02T04:30:17.154Z,97484.48
2023-04-02T04:32:58.380Z,97488.67
2023-04-02T04:35:46.574Z,97485.71
2023-04-02T04:38:32.999Z,97488.17
2023-04-02T04:41:21.554Z,97494.25
2023-04-02T04:44:00.081Z,97495.70
2023-04-02T04:46:35.629Z,97498.38
2023-04-02T04:49:27.281Z,97504.60
2023-04-02T04:51:59.930Z,97508.48
2023-04-02T04:54:28.842Z,97511.54
2023-04-02T04:57:02.800Z,97514.40
2023-04-02T04:59:44.523Z,97516.11
2023-04-02T05:02:32.432Z,97520.50
2023-04-02T05:05:02.752Z,97519.59
2023-04-02T05:07:46.011Z,97527.30
2023-04-02T05:10:25.217Z,97526.74
2023-04-02T05:13:01.963Z,97531.64
2023-04-02T05:15:36.526Z,97534.52
2023-04-02T05:18:14.210Z,97539.77
2023-04-02T05:20:56.597Z,97543.02
2023-04-02T05:23:34.304Z,97549.63
2023-04-02T05:26:12.417Z,97550.10
2023-04-02T05:28:53.087Z,97556.23
2023-04-02T05:31:44.583Z,97562.21
2023-04-02T05:34:14.700Z,97563.81
2023-04-02T05:36:46.829Z,97569.02
2023-04-02T05:39:22.892Z,97570.81
2023-04-02T05:42:23.968Z,97578.26
2023-04-02T05:45:24.212Z,97576.71
2023-04-02T05:48:00.235Z,97585.09
2023-04-02T05:50:37.645Z,97588.14
2023-04-02T05:53:16.719Z,97591.67
2023-04-02T05:55:57.741Z,97593.84
2023-04-02T05:58:36.541Z,97597.03
2023-04-02T06:01:37.760Z,97603.23
2023-04-02T06:04:48.497Z,97609.05
2023-04-02T06:07:22.562Z,97616.16
2023-04-02T06:10:09.650Z,97617.64
2023-04-02T06:12:42.065Z,97625.80
2023-04-02T06:15:15.851Z,97630.08
2023-04-02T06:17:50.973Z,97634.23
2023-04-02T06:20:21.378Z,97640.73
2023-04-02T06:22:53.383Z,97645.56
2023-04-02T06:25:34.199Z,97651.73
2023-04-02T06:28:06.889Z,97659.68
2023-04-02T06:30:39.743Z,97663.41
2023-04-02T06:33:12.817Z,97670.36
2023-04-02T06:35:46.883Z,97678.15
2023-04-02T06:38:22.624Z,97685.80
2023-04-02T06:40:54.922Z,97688.95
2023-04-02T06:44:17.343Z,97698.63
2023-04-02T06:47:27.639Z,97703.42
2023-04-02T06:50:04.300Z,97709.10
2023-04-02T06:52:50.378Z,97707.35
2023-04-02T06:55:21.901Z,97711.29
2023-04-02T06:57:50.501Z,97719.52
2023-04-02T07:00:41.579Z,97724.86
2023-04-02T07:03:24.238Z,97725.14
2023-04-02T07:05:54.364Z,97726.48
2023-04-02T07:08:23.960Z,97730.23
2023-04-02T07:10:52.519Z,97738.83
2023-04-02T07:13:23.913Z,97740.52
2023-04-02T07:15:54.582Z,97744.89
2023-04-02T07:18:26.984Z,97748.34
2023-04-02T07:20:56.290Z,97757.54
2023-04-02T07:23:25.129Z,97764.48
2023-04-02T07:25:54.979Z,97772.90
2023-04-02T07:28:23.383Z,97764.17
2023-04-02T07:30:52.395Z,97781.98
2023-04-02T07:33:23.482Z,97782.75
2023-04-02T07:35:53.349Z,97786.80
2023-04-02T07:38:21.616Z,97792.91
2023-04-02T07:40:50.416Z,97798.21
2023-04-02T07:43:18.587Z,97802.86
2023-04-02T07:45:46.607Z,97809.55
2023-04-02T07:48:15.163Z,97815.22
2023-04-02T07:50:43.427Z,97822.34
2023-04-02T07:53:44.052Z,97825.38
2023-04-02T07:56:15.693Z,97830.27
2023-04-02T07:58:43.828Z,97834.30
2023-04-02T08:01:21.125Z,97834.70
2023-04-02T08:03:50.031Z,97842.43
2023-04-02T08:06:21.229Z,97851.17
2023-04-02T08:08:49.538Z,97852.02
2023-04-02T08:11:17.740Z,97861.05
2023-04-02T08:13:46.173Z,97863.79
2023-04-02T08:16:14.242Z,97869.16
2023-04-02T08:18:42.320Z,97874.77
2023-04-02T08:21:11.241Z,97876.08
2023-04-02T08:23:39.261Z,97881.04
2023-04-02T08:26:07.741Z,97886.25
2023-04-02T08:28:35.808Z,97894.04
2023-04-02T08:31:04.983Z,97898.25
2023-04-02T08:33:33.011Z,97899.14
2023-04-02T08:36:01.152Z,97903.94
2023-04-02T08:38:29.185Z,97906.70
2023-04-02T08:41:01.636Z,97908.07
2023-04-02T08:43:54.451Z,97911.62
2023-04-02T08:46:31.940Z,97918.11
2023-04-02T08:49:03.828Z,97921.42
2023-04-02T08:51:36.864Z,97923.86
2023-04-02T08:54:29.063Z,97929.20
2023-04-02T08:57:07.579Z,97930.11
2023-04-02T08:59:41.056Z,97934.70
2023-04-02T09:02:11.793Z,97937.55
2023-04-02T09:04:42.031Z,97939.01
2023-04-02T09:07:16.694Z,97945.42
2023-04-02T09:09:48.930Z,97943.89
2023-04-02T09:12:29.270Z,97950.52
2023-04-02T09:15:16.429Z,97953.09
2023-04-02T09:17:53.680Z,97954.75
2023-04-02T09:20:29.510Z,97958.86
2023-04-02T09:22:57.919Z,97965.46
2023-04-02T09:25:34.368Z,97967.67
2023-04-02T09:28:05.157Z,97970.37
2023-04-02T09:30:41.078Z,97977.35
2023-04-02T09:33:09.738Z,97979.83
2023-04-02T09:35:50.663Z,97989.44
2023-04-02T09:38:21.878Z,97995.00
2023-04-02T09:40:54.323Z,97992.58
2023-04-02T09:43:25.639Z,97995.48
2023-04-02T09:46:01.273Z,97999.83
2023-04-02T09:48:39.522Z,98004.69
2023-04-02T09:51:21.524Z,98012.19
2023-04-02T09:54:04.877Z,98013.50
2023-04-02T09:56:36.012Z,98016.84
2023-04-02T09:59:13.212Z,98021.05
2023-04-02T10:01:44.000Z,98023.32
2023-04-02T10:04:31.080Z,98027.05
2023-04-02T10:06:59.242Z,98029.20
2023-04-02T10:09:39.018Z,98030.48
2023-04-02T10:12:14.328Z,98038.29
2023-04-02T10:14:48.528Z,98039.23
2023-04-02T10:17:27.893Z,98046.16
2023-04-02T10:20:01.702Z,98051.10
2023-04-02T10:22:29.991Z,98054.31
2023-04-02T10:25:01.601Z,98054.02
2023-04-02T10:27:37.781Z,98053.50
2023-04-02T10:30:28.898Z,98062.56
2023-04-02T10:33:07.564Z,98061.44
2023-04-02T10:36:02.614Z,98069.30
2023-04-02T10:39:23.464Z,98072.10
2023-04-02T10:42:07.446Z,98077.20
2023-04-02T10:45:02.013Z,98082.24
2023-04-02T10:47:42.633Z,98078.11
2023-04-02T10:50:53.826Z,98084.27
2023-04-02T10:53:36.174Z,98087.27
2023-04-02T10:56:09.099Z,98092.91
2023-04-02T10:59:14.666Z,98097.45
2023-04-02T11:01:44.924Z,98101.19
2023-04-02T11:04:29.594Z,98102.18
2023-04-02T11:07:13.290Z,98107.85
2023-04-02T11:09:46.911Z,98108.95
2023-04-02T11:12:21.074Z,98110.59
2023-04-02T11:14:51.061Z,98115.89
2023-04-02T11:17:20.867Z,98118.42
2023-04-02T11:19:49.166Z,98120.80
2023-04-02T11:22:16.938Z,98131.84
2023-04-02T11:24:56.544Z,98130.02
2023-04-02T11:27:34.649Z,98136.74
2023-04-02T11:30:05.612Z,98141.23
2023-04-02T11:32:40.366Z,98144.35
2023-04-02T11:35:46.905Z,98148.33
2023-04-02T11:38:23.940Z,98154.05
2023-04-02T11:40:57.316Z,98157.71
2023-04-02T11:43:34.551Z,98154.61
2023-04-02T11:46:21.738Z,98154.81
2023-04-02T11:48:49.785Z,98155.53
2023-04-02T11:51:21.524Z,98153.36
2023-04-02T11:53:53.992Z,98155.48
2023-04-02T11:56:29.982Z,98155.86
2023-04-02T11:59:24.328Z,98160.40
2023-04-02T12:02:17.261Z,98163.38
2023-04-02T12:05:04.472Z,98166.17
2023-04-02T12:07:52.478Z,98170.54
2023-04-02T12:10:58.107Z,98170.08
2023-04-02T12:13:41.223Z,98179.52
2023-04-02T12:16:12.298Z,98175.91
2023-04-02T12:18:51.352Z,98180.65
2023-04-02T12:21:22.680Z,98184.46
2023-04-02T12:23:55.123Z,98186.73
2023-04-02T12:26:37.826Z,98189.90
2023-04-02T12:29:17.463Z,98189.64
2023-04-02T12:31:48.008Z,98187.42
2023-04-02T12:34:18.653Z,98190.89
2023-04-02T12:36:55.839Z,98195.66
2023-04-02T12:39:26.670Z,98196.83
2023-04-02T12:41:57.460Z,98200.74
2023-04-02T12:44:30.472Z,98201.89
2023-04-02T12:46:59.538Z,98210.70
2023-04-02T12:49:43.947Z,98208.71
2023-04-02T12:52:18.098Z,98214.81
2023-04-02T12:54:54.071Z,98219.48
2023-04-02T12:57:29.052Z,98218.20
2023-04-02T13:00:05.970Z,98225.61
2023-04-02T13:02:45.111Z,98223.34
2023-04-02T13:05:13.378Z,98227.93
2023-04-02T13:07:47.777Z,98229.39
2023-04-02T13:10:27.844Z,98229.27
2023-04-02T13:13:01.268Z,98232.59
2023-04-02T13:15:36.690Z,98241.39
2023-04-02T13:18:19.394Z,98241.83
2023-04-02T13:21:23.816Z,98242.04
2023-04-02T13:23:51.791Z,98244.94
2023-04-02T13:26:24.374Z,98246.29
2023-04-02T13:29:04.319Z,98247.14
2023-04-02T13:31:33.450Z,98250.87
2023-04-02T13:34:01.733Z,98257.51
2023-04-02T13:36:29.782Z,98265.05
2023-04-02T13:38:57.811Z,98266.85
2023-04-02T13:41:31.359Z,98269.58
2023-04-02T13:44:02.555Z,98275.14
2023-04-02T13:46:33.862Z,98282.61
2023-04-02T13:49:02.090Z,98276.52
2023-04-02T13:51:41.235Z,98274.31
2023-04-02T13:54:25.822Z,98275.83
2023-04-02T13:56:56.099Z,98277.21
2023-04-02T13:59:25.019Z,98279.91
2023-04-02T14:02:02.091Z,98284.55
2023-04-02T14:04:35.157Z,98288.45
2023-04-02T14:07:17.599Z,98288.88
2023-04-02T14:09:57.412Z,98291.84
2023-04-02T14:12:32.178Z,98291.20
2023-04-02T14:15:12.587Z,98299.42
2023-04-02T14:18:19.897Z,98305.16
2023-04-02T14:21:03.063Z,98311.39
2023-04-02T14:23:50.052Z,98314.27
2023-04-02T14:26:41.922Z,98315.02
2023-04-02T14:29:35.734Z,98318.98
2023-04-02T14:32:10.203Z,98322.86
2023-04-02T14:34:51.486Z,98323.52
2023-04-02T14:37:33.764Z,98333.41
2023-04-02T14:40:01.686Z,98332.35
2023-04-02T14:42:55.052Z,98330.17
2023-04-02T14:45:51.860Z,98331.56
2023-04-02T14:48:58.898Z,98338.40
2023-04-02T14:51:34.850Z,98336.30
2023-04-02T14:54:29.987Z,98341.89
2023-04-02T14:57:05.504Z,98341.18
2023-04-02T15:00:02.157Z,98341.75
2023-04-02T15:02:48.975Z,98342.01
2023-04-02T15:05:28.347Z,98344.36
2023-04-02T15:08:03.101Z,98350.51
2023-04-02T15:11:03.000Z,98352.80
2023-04-02T15:13:45.572Z,98359.09
2023-04-02T15:16:20.741Z,98359.38
2023-04-02T15:19:12.791Z,98359.61
2023-04-02T15:22:09.564Z,98367.08
2023-04-02T15:25:15.931Z,98368.92
2023-04-02T15:28:07.482Z,98373.76
2023-04-02T15:30:39.645Z,98378.12
2023-04-02T15:33:26.097Z,98381.92
2023-04-02T15:35:57.090Z,98386.91
2023-04-02T15:38:35.952Z,98388.42
2023-04-02T15:41:16.407Z,98393.49
2023-04-02T15:43:56.796Z,98394.17
2023-04-02T15:46:36.510Z,98392.67
2023-04-02T15:49:21.244Z,98397.02
2023-04-02T15:52:00.074Z,98399.60
2023-04-02T15:54:36.979Z,98406.42
2023-04-02T15:57:23.331Z,98410.48
2023-04-02T16:00:12.695Z,98411.31
2023-04-02T16:03:17.507Z,98419.98
2023-04-02T16:06:17.271Z,98418.48
2023-04-02T16:08:53.175Z,98421.95
2023-04-02T16:13:49.193Z,98426.00
2023-04-02T16:16:35.412Z,98429.02
2023-04-02T16:19:15.598Z,98430.69
2023-04-02T16:21:52.787Z,98430.31
2023-04-02T16:24:21.188Z,98435.19
2023-04-02T16:27:45.390Z,98440.42
2023-04-02T16:30:47.636Z,98444.91
2023-04-02T16:33:27.178Z,98448.98
2023-04-02T16:36:17.884Z,98453.13
2023-04-02T16:39:01.395Z,98453.13
2023-04-02T16:41:57.991Z,98458.04
2023-04-02T16:44:57.478Z,98458.84
2023-04-02T16:47:47.395Z,98462.25
2023-04-02T16:50:33.727Z,98465.20
2023-04-02T16:54:00.342Z,98473.57
2023-04-02T16:56:48.799Z,98475.02
2023-04-02T16:59:45.875Z,98477.22
2023-04-02T17:02:48.360Z,98479.07
2023-04-02T17:05:22.223Z,98487.81
2023-04-02T17:08:06.798Z,98488.85
2023-04-02T17:11:01.800Z,98488.20
2023-04-02T17:13:43.301Z,98494.56
2023-04-02T17:16:22.089Z,98498.87
2023-04-02T17:18:53.680Z,98498.56
2023-04-02T17:21:26.563Z,98506.85
2023-04-02T17:23:58.480Z,98511.20
2023-04-02T17:26:30.226Z,98513.24
2023-04-02T17:29:03.818Z,98517.25
2023-04-02T17:31:37.450Z,98516.05
2023-04-02T17:34:18.012Z,98516.20
2023-04-02T17:36:58.663Z,98516.54
2023-04-02T17:39:41.972Z,98527.58
2023-04-02T17:42:18.926Z,98529.38
2023-04-02T17:45:05.801Z,98530.24
2023-04-02T17:47:47.162Z,98532.79
2023-04-02T17:50:15.428Z,98536.86
2023-04-02T17:52:56.288Z,98538.30
2023-04-02T17:55:50.791Z,98538.46
2023-04-02T17:58:37.683Z,98544.13
2023-04-02T18:01:12.109Z,98547.27
2023-04-02T18:03:47.649Z,98546.18
2023-04-02T18:06:53.732Z,98546.51
2023-04-02T18:09:59.014Z,98550.29
2023-04-02T18:12:35.725Z,98554.04
2023-04-02T18:15:06.457Z,98555.59
2023-04-02T18:17:56.112Z,98554.61
2023-04-02T18:20:30.907Z,98561.27
2023-04-02T18:23:47.056Z,98561.54
2023-04-02T18:26:36.438Z,98565.74
2023-04-02T18:29:15.825Z,98572.11
2023-04-02T18:32:01.558Z,98575.08
2023-04-02T18:34:35.588Z,98577.02
2023-04-02T18:37:20.037Z,98581.88
2023-04-02T18:40:03.223Z,98587.46
2023-04-02T18:42:48.973Z,98586.33
2023-04-02T18:45:33.663Z,98594.04
2023-04-02T18:48:11.074Z,98596.62
2023-04-02T18:50:46.111Z,98601.58
2023-04-02T18:53:18.665Z,98598.75
2023-04-02T18:55:53.871Z,98600.60
2023-04-02T18:58:47.273Z,98599.41
2023-04-02T19:01:39.140Z,98597.77
2023-04-02T19:04:13.528Z,98603.41
2023-04-02T19:06:52.415Z,98608.79
2023-04-02T19:09:33.109Z,98610.27
2023-04-02T19:12:03.032Z,98615.02
2023-04-02T19:14:31.187Z,98615.30
2023-04-02T19:17:31.800Z,98618.08
2023-04-02T19:20:12.375Z,98619.36
2023-04-02T19:22:55.066Z,98622.70
2023-04-02T19:25:44.805Z,98621.72
2023-04-02T19:28:16.064Z,98625.77
2023-04-02T19:31:02.239Z,98628.30
2023-04-02T19:33:41.824Z,98629.03
2023-04-02T19:36:35.866Z,98629.85
2023-04-02T19:39:21.851Z,98629.86
2023-04-02T19:42:08.700Z,98633.23
2023-04-02T19:44:43.144Z,98633.96
2023-04-02T19:47:11.664Z,98634.73
2023-04-02T19:49:39.898Z,98637.36
2023-04-02T19:52:07.994Z,98635.48
2023-04-02T19:54:37.068Z,98644.55
2023-04-02T19:57:06.452Z,98642.50
2023-04-02T19:59:34.378Z,98642.72
2023-04-02T20:02:06.097Z,98645.66
2023-04-02T20:04:34.367Z,98647.39
2023-04-02T20:07:02.696Z,98646.91
2023-04-02T20:09:30.744Z,98645.88
2023-04-02T20:11:58.743Z,98648.48
2023-04-02T20:14:26.653Z,98653.37
2023-04-02T20:16:54.538Z,98653.55
2023-04-02T20:19:23.086Z,98651.65
2023-04-02T20:21:51.918Z,98652.52
2023-04-02T20:24:20.016Z,98657.70
2023-04-02T20:26:47.944Z,98658.79
2023-04-02T20:29:15.908Z,98664.40
2023-04-02T20:31:43.831Z,98664.76
2023-04-02T20:34:12.087Z,98666.95
2023-04-02T20:36:40.314Z,98670.58
2023-04-02T20:39:09.712Z,98671.75
2023-04-02T20:41:37.708Z,98674.80
2023-04-02T20:44:05.664Z,98679.61
2023-04-02T20:46:33.786Z,98677.20
2023-04-02T20:49:02.596Z,98679.45
2023-04-02T20:54:16.022Z,98683.08
2023-04-02T20:56:44.888Z,98685.38
2023-04-02T20:59:12.843Z,98686.14
2023-04-02T21:01:40.802Z,98687.23
2023-04-02T21:04:09.259Z,98690.41
2023-04-02T21:06:39.356Z,98690.42
2023-04-02T21:09:14.851Z,98690.97
2023-04-02T21:11:43.941Z,98694.09
2023-04-02T21:14:12.084Z,98691.48
2023-04-02T21:16:40.044Z,98691.30
2023-04-02T21:19:09.597Z,98694.27
2023-04-02T21:21:39.720Z,98694.80
2023-04-02T21:24:09.328Z,98697.77
2023-04-02T21:26:41.786Z,98697.96
2023-04-02T21:29:11.525Z,98705.73
2023-04-02T21:31:41.198Z,98703.13
2023-04-02T21:34:13.307Z,98705.95
2023-04-02T21:36:47.071Z,98703.76
2023-04-02T21:39:21.569Z,98704.52
2023-04-02T21:41:52.027Z,98705.79
2023-04-02T21:44:22.024Z,98709.54
2023-04-02T21:46:52.074Z,98712.72
2023-04-02T21:49:22.808Z,98719.16
2023-04-02T21:51:54.523Z,98722.67
2023-04-02T21:54:22.546Z,98720.79
2023-04-02T21:56:51.033Z,98722.38
2023-04-02T21:59:19.388Z,98725.50
2023-04-02T22:01:49.886Z,98730.90
2023-04-02T22:04:23.851Z,98734.64
2023-04-02T22:06:53.007Z,98734.85
2023-04-02T22:09:24.582Z,98736.06
2023-04-02T22:12:01.945Z,98740.45
2023-04-02T22:14:30.556Z,98740.66
2023-04-02T22:16:58.994Z,98741.40
2023-04-02T22:19:27.226Z,98745.73
2023-04-02T22:21:56.623Z,98750.25
2023-04-02T22:24:25.486Z,98753.05
2023-04-02T22:29:22.249Z,98753.11
2023-04-02T22:31:50.435Z,98755.92
2023-04-02T22:34:18.362Z,98752.95
2023-04-02T22:36:46.537Z,98754.69
2023-04-02T22:39:15.263Z,98755.42
2023-04-02T22:41:43.427Z,98761.02
2023-04-02T22:44:14.475Z,98761.34
2023-04-02T22:46:42.506Z,98760.52
2023-04-02T22:49:11.735Z,98759.67
2023-04-02T22:51:39.669Z,98760.71
2023-04-02T22:54:07.625Z,98760.86
2023-04-02T22:56:37.763Z,98762.58
2023-04-02T22:59:05.969Z,98763.27
2023-04-02T23:01:36.019Z,98763.33
2023-04-02T23:04:05.357Z,98759.70
2023-04-02T23:06:34.036Z,98766.95
2023-04-02T23:09:02.141Z,98769.86
2023-04-02T23:11:30.520Z,98768.46
2023-04-02T23:13:58.563Z,98768.11
2023-04-02T23:16:28.811Z,98768.32
2023-04-02T23:18:57.730Z,98767.67
2023-04-02T23:21:26.427Z,98769.25
2023-04-02T23:23:54.621Z,98770.11
2023-04-02T23:26:26.591Z,98767.52
2023-04-02T23:28:55.412Z,98769.09
2023-04-02T23:31:24.168Z,98767.73
2023-04-02T23:33:53.273Z,98768.62
2023-04-02T23:36:24.166Z,98768.80
2023-04-02T23:38:57.842Z,98768.13
2023-04-02T23:41:27.188Z,98773.49
2023-04-02T23:43:56.764Z,98772.42
2023-04-02T23:46:25.981Z,98769.14
2023-04-02T23:49:33.782Z,98770.67
2023-04-02T23:52:01.717Z,98773.27
2023-04-02T23:54:29.670Z,98774.33
2023-04-02T23:56:57.575Z,98778.48
2023-04-02T23:59:25.555Z,98779.64
